Time;durP1;ratioP1;P1;durP2;ratioP2;P2;SDS_P1;SDS_P2;PMS_P1;PMS_P2;Temp;Humidity;BMP_temperature;BMP_pressure;BME280_temperature;BME280_humidity;BME280_pressure;Samples;Min_cycle;Max_cycle;Signal;HPM_P1;HPM_P2
2023/09/29 00:00:49;;;;;;;;;5.60;4.40;;;;;;;;5068497;28;9619;-77
2023/09/29 00:03:17;;;;;;;;;5.80;4.60;;;;;;;;5067842;28;8874;-77
2023/09/29 00:05:44;;;;;;;;;2.40;2.40;;;;;;;;5060630;28;8924;-77
2023/09/29 00:08:16;;;;;;;;;2.20;2.20;;;;;;;;5067931;28;8854;-77
2023/09/29 00:10:43;;;;;;;;;3.40;2.80;;;;;;;;5071487;28;8862;-77
2023/09/29 00:13:13;;;;;;;;;2.00;2.00;;;;;;;;5067357;28;8874;-77
2023/09/29 00:15:41;;;;;;;;;4.00;4.00;;;;;;;;5068298;28;8870;-78
2023/09/29 00:18:09;;;;;;;;;2.40;2.40;;;;;;;;5068362;28;8873;-78
2023/09/29 00:20:36;;;;;;;;;2.00;2.00;;;;;;;;5067322;28;8842;-78
2023/09/29 00:23:06;;;;;;;;;4.20;3.20;;;;;;;;5067141;28;8866;-77
2023/09/29 00:25:33;;;;;;;;;3.80;3.00;;;;;;;;5068215;28;8842;-77
2023/09/29 00:28:01;;;;;;;;;3.40;3.40;;;;;;;;5068650;28;8873;-78
2023/09/29 00:30:28;;;;;;;;;5.00;3.80;;;;;;;;5067741;28;8815;-77
2023/09/29 00:32:56;;;;;;;;;4.20;3.00;;;;;;;;5068343;28;8877;-76
2023/09/29 00:35:27;;;;;;;;;4.00;4.00;;;;;;;;5069299;28;8870;-77
2023/09/29 00:37:54;;;;;;;;;4.00;4.00;;;;;;;;5071979;28;8851;-78
2023/09/29 00:40:22;;;;;;;;;5.40;4.40;;;;;;;;5071412;28;8882;-78
2023/09/29 00:42:49;;;;;;;;;1.80;1.80;;;;;;;;5071767;28;8859;-79
2023/09/29 00:45:19;;;;;;;;;3.40;3.40;;;;;;;;5072708;28;8847;-78
2023/09/29 00:47:49;;;;;;;;;5.00;5.00;;;;;;;;5085451;28;8874;-76
2023/09/29 00:50:20;;;;;;;;;5.00;3.60;;;;;;;;5069116;28;8880;-81
2023/09/29 00:52:48;;;;;;;;;3.00;3.00;;;;;;;;5067790;28;8881;-77
2023/09/29 00:55:22;;;;;;;;;3.80;3.80;;;;;;;;5067875;28;8862;-78
2023/09/29 00:57:50;;;;;;;;;4.00;4.00;;;;;;;;5068677;28;8854;-78
2023/09/29 01:00:32;;;;;;;;;0.20;0.20;;;;;;;;5067061;28;8863;-80
2023/09/29 01:03:02;;;;;;;;;3.80;3.80;;;;;;;;5079325;28;8841;-78
2023/09/29 01:05:38;;;;;;;;;5.00;4.00;;;;;;;;5069179;28;8981;-78
2023/09/29 01:08:09;;;;;;;;;3.80;3.40;;;;;;;;5067738;28;8850;-79
2023/09/29 01:10:37;;;;;;;;;4.80;4.80;;;;;;;;5054967;28;8981;-79
2023/09/29 01:13:04;;;;;;;;;3.40;3.40;;;;;;;;5067681;28;8847;-79
2023/09/29 01:15:33;;;;;;;;;5.80;4.00;;;;;;;;5072955;28;8848;-78
2023/09/29 01:18:01;;;;;;;;;3.00;3.00;;;;;;;;5075031;28;8940;-78
2023/09/29 01:20:30;;;;;;;;;6.20;5.00;;;;;;;;5056437;28;8889;-80
2023/09/29 01:22:58;;;;;;;;;3.80;3.80;;;;;;;;5067944;28;8941;-79
2023/09/29 01:25:26;;;;;;;;;4.60;4.20;;;;;;;;5069658;28;8847;-77
2023/09/29 01:27:54;;;;;;;;;3.00;3.00;;;;;;;;5070730;28;8882;-77
2023/09/29 01:30:22;;;;;;;;;2.20;2.20;;;;;;;;5071047;28;9510;-77
2023/09/29 01:32:50;;;;;;;;;3.40;3.40;;;;;;;;5070944;28;8827;-79
2023/09/29 01:35:18;;;;;;;;;3.60;3.60;;;;;;;;5071312;28;8858;-79
2023/09/29 01:37:46;;;;;;;;;2.20;2.20;;;;;;;;5070486;28;8958;-79
2023/09/29 01:40:14;;;;;;;;;5.00;3.20;;;;;;;;5071266;28;8929;-79
2023/09/29 01:42:43;;;;;;;;;5.40;5.40;;;;;;;;5070573;28;8894;-78
2023/09/29 01:45:12;;;;;;;;;6.60;4.80;;;;;;;;5071311;28;8954;-78
2023/09/29 01:47:40;;;;;;;;;6.80;4.80;;;;;;;;5070649;28;8957;-78
2023/09/29 01:50:08;;;;;;;;;5.40;4.60;;;;;;;;5071113;28;8920;-77
2023/09/29 01:52:35;;;;;;;;;5.00;3.60;;;;;;;;5069913;28;9637;-77
2023/09/29 01:55:09;;;;;;;;;3.40;3.40;;;;;;;;5081880;28;8876;-77
2023/09/29 01:57:37;;;;;;;;;4.20;4.20;;;;;;;;5069643;28;9653;-77
2023/09/29 02:00:18;;;;;;;;;5.80;4.00;;;;;;;;5069955;28;8874;-77
2023/09/29 02:02:46;;;;;;;;;4.20;4.20;;;;;;;;5060606;28;8920;-77
2023/09/29 02:05:16;;;;;;;;;4.20;4.20;;;;;;;;5070284;28;8835;-79
2023/09/29 02:07:43;;;;;;;;;5.60;4.20;;;;;;;;5070314;28;8985;-78
2023/09/29 02:10:11;;;;;;;;;4.80;4.80;;;;;;;;5070384;28;8854;-78
2023/09/29 02:12:45;;;;;;;;;3.60;3.60;;;;;;;;5070887;28;8881;-79
2023/09/29 02:15:15;;;;;;;;;5.40;5.40;;;;;;;;5069859;28;8834;-77
2023/09/29 02:17:42;;;;;;;;;5.80;5.20;;;;;;;;5072087;28;8862;-76
2023/09/29 02:20:14;;;;;;;;;1.60;1.40;;;;;;;;5073194;28;8972;-77
2023/09/29 02:22:41;;;;;;;;;3.20;3.20;;;;;;;;5075387;28;8856;-78
2023/09/29 02:25:10;;;;;;;;;5.20;5.20;;;;;;;;5074195;28;8858;-80
2023/09/29 02:27:38;;;;;;;;;3.40;3.40;;;;;;;;5074895;28;8866;-78
2023/09/29 02:30:08;;;;;;;;;5.00;4.00;;;;;;;;5074422;28;8883;-84
2023/09/29 02:32:37;;;;;;;;;3.80;3.80;;;;;;;;5073070;28;8867;-84
2023/09/29 02:35:05;;;;;;;;;4.60;4.60;;;;;;;;5058290;28;8886;-80
2023/09/29 02:37:32;;;;;;;;;4.40;4.40;;;;;;;;5069244;28;8839;-79
2023/09/29 02:39:59;;;;;;;;;5.00;3.20;;;;;;;;5070400;28;8851;-78
2023/09/29 02:42:26;;;;;;;;;3.60;3.60;;;;;;;;5069249;28;8871;-79
2023/09/29 02:44:54;;;;;;;;;6.80;6.80;;;;;;;;5069761;28;8854;-78
2023/09/29 02:47:21;;;;;;;;;6.60;6.60;;;;;;;;5069700;28;8851;-80
2023/09/29 02:49:49;;;;;;;;;5.40;5.40;;;;;;;;5069787;28;8983;-78
2023/09/29 02:52:16;;;;;;;;;5.00;5.00;;;;;;;;5068662;28;8851;-77
2023/09/29 02:54:43;;;;;;;;;5.00;4.00;;;;;;;;5069741;28;8873;-77
2023/09/29 02:57:11;;;;;;;;;4.00;4.00;;;;;;;;5069690;28;8815;-78
2023/09/29 02:59:38;;;;;;;;;4.20;4.20;;;;;;;;5070614;28;8945;-78
2023/09/29 03:02:06;;;;;;;;;4.80;4.80;;;;;;;;5069986;28;8811;-77
2023/09/29 03:04:34;;;;;;;;;6.00;6.00;;;;;;;;5070664;28;8883;-82
2023/09/29 03:07:02;;;;;;;;;4.80;4.80;;;;;;;;5069780;28;9522;-80
2023/09/29 03:09:30;;;;;;;;;5.00;4.80;;;;;;;;5069173;28;8986;-78
2023/09/29 03:11:59;;;;;;;;;5.80;5.80;;;;;;;;5069000;28;8877;-81
2023/09/29 03:14:26;;;;;;;;;4.20;4.20;;;;;;;;5068979;28;8851;-78
2023/09/29 03:16:54;;;;;;;;;5.00;5.00;;;;;;;;5068910;28;8862;-78
2023/09/29 03:19:22;;;;;;;;;3.60;3.60;;;;;;;;5068763;28;8875;-79
2023/09/29 03:21:49;;;;;;;;;4.80;4.80;;;;;;;;5068434;28;8850;-78
2023/09/29 03:24:18;;;;;;;;;4.40;4.40;;;;;;;;5069170;28;8871;-77
2023/09/29 03:26:49;;;;;;;;;6.20;6.20;;;;;;;;5068459;28;8871;-79
2023/09/29 03:29:17;;;;;;;;;5.60;5.60;;;;;;;;5082076;28;8852;-78
2023/09/29 03:31:46;;;;;;;;;6.00;6.00;;;;;;;;5068714;28;8945;-78
2023/09/29 03:34:15;;;;;;;;;5.20;4.00;;;;;;;;5068796;28;8854;-77
2023/09/29 03:36:42;;;;;;;;;6.80;6.80;;;;;;;;5056655;28;8851;-78
2023/09/29 03:39:10;;;;;;;;;5.80;5.80;;;;;;;;5068514;28;8876;-77
2023/09/29 03:41:38;;;;;;;;;6.00;5.80;;;;;;;;5068877;28;8854;-77
2023/09/29 03:44:05;;;;;;;;;5.20;5.20;;;;;;;;5067352;28;9003;-78
2023/09/29 03:46:36;;;;;;;;;6.20;4.80;;;;;;;;5067961;28;8861;-78
2023/09/29 03:49:03;;;;;;;;;5.60;5.60;;;;;;;;5064999;28;8849;-78
2023/09/29 03:51:30;;;;;;;;;4.20;4.20;;;;;;;;5068400;28;8864;-77
2023/09/29 03:53:58;;;;;;;;;6.00;5.20;;;;;;;;5067705;28;8882;-78
2023/09/29 03:56:25;;;;;;;;;6.00;5.80;;;;;;;;5067865;28;8995;-81
2023/09/29 03:58:55;;;;;;;;;4.20;4.20;;;;;;;;5072612;28;8911;-80
2023/09/29 04:01:22;;;;;;;;;6.00;6.00;;;;;;;;5074260;28;8822;-80
2023/09/29 04:03:50;;;;;;;;;6.00;4.80;;;;;;;;5073186;28;8876;-81
2023/09/29 04:06:17;;;;;;;;;3.00;3.00;;;;;;;;5074628;28;8874;-81
2023/09/29 04:08:46;;;;;;;;;4.00;2.40;;;;;;;;5073165;28;8893;-80
2023/09/29 04:11:14;;;;;;;;;4.00;4.00;;;;;;;;5074060;28;9719;-83
2023/09/29 04:13:43;;;;;;;;;2.60;2.60;;;;;;;;5072182;28;8857;-81
2023/09/29 04:16:12;;;;;;;;;3.80;3.80;;;;;;;;5068366;28;8870;-78
2023/09/29 04:18:39;;;;;;;;;3.20;2.00;;;;;;;;5067118;28;8863;-77
2023/09/29 04:21:12;;;;;;;;;3.20;3.20;;;;;;;;5067938;28;8867;-80
2023/09/29 04:23:40;;;;;;;;;3.00;3.00;;;;;;;;5067725;28;8865;-81
2023/09/29 04:26:15;;;;;;;;;2.80;2.80;;;;;;;;5066660;28;8928;-77
2023/09/29 04:28:43;;;;;;;;;3.00;3.00;;;;;;;;5067422;28;8854;-78
2023/09/29 04:31:12;;;;;;;;;4.60;4.60;;;;;;;;5066735;28;8786;-78
2023/09/29 04:33:39;;;;;;;;;3.00;3.00;;;;;;;;5068034;28;8847;-78
2023/09/29 04:36:07;;;;;;;;;3.00;3.00;;;;;;;;5067671;28;8874;-80
2023/09/29 04:38:36;;;;;;;;;2.00;2.00;;;;;;;;5067625;28;8981;-79
2023/09/29 04:41:04;;;;;;;;;2.00;2.00;;;;;;;;5067536;28;8840;-77
2023/09/29 04:43:32;;;;;;;;;4.20;3.00;;;;;;;;5079248;28;8851;-78
2023/09/29 04:45:59;;;;;;;;;2.40;2.40;;;;;;;;5070256;28;8827;-81
2023/09/29 04:48:27;;;;;;;;;2.80;2.80;;;;;;;;5067859;28;8866;-78
2023/09/29 04:50:55;;;;;;;;;4.00;2.40;;;;;;;;5066887;28;8854;-78
2023/09/29 04:53:22;;;;;;;;;5.00;3.00;;;;;;;;5067434;28;9631;-79
2023/09/29 04:55:51;;;;;;;;;2.60;1.60;;;;;;;;5066780;28;8850;-78
2023/09/29 04:58:18;;;;;;;;;5.00;3.80;;;;;;;;5067017;28;8989;-79
2023/09/29 05:00:45;;;;;;;;;2.80;2.80;;;;;;;;5068861;28;8795;-84
2023/09/29 05:03:13;;;;;;;;;0.80;0.80;;;;;;;;5071132;28;8951;-78
2023/09/29 05:05:41;;;;;;;;;1.80;1.80;;;;;;;;5070516;28;8851;-74
2023/09/29 05:08:08;;;;;;;;;3.00;3.00;;;;;;;;5070948;28;9637;-75
2023/09/29 05:10:38;;;;;;;;;1.20;1.20;;;;;;;;5071052;28;8838;-72
2023/09/29 05:13:06;;;;;;;;;5.40;2.80;;;;;;;;5064854;28;8868;-76
2023/09/29 05:15:36;;;;;;;;;2.60;2.60;;;;;;;;5073560;28;8878;-80
2023/09/29 05:18:04;;;;;;;;;2.20;2.20;;;;;;;;5072349;28;8860;-77
2023/09/29 05:20:32;;;;;;;;;2.20;2.20;;;;;;;;5073388;28;8878;-72
2023/09/29 05:23:01;;;;;;;;;3.40;1.60;;;;;;;;5070149;28;8850;-72
2023/09/29 05:25:29;;;;;;;;;2.80;2.80;;;;;;;;5071232;28;8959;-88
2023/09/29 05:27:57;;;;;;;;;6.20;3.20;;;;;;;;5070672;28;8874;-79
2023/09/29 05:30:24;;;;;;;;;3.00;3.00;;;;;;;;5070400;28;8810;-71
2023/09/29 05:32:51;;;;;;;;;2.00;2.00;;;;;;;;5071134;28;8854;-73
2023/09/29 05:35:19;;;;;;;;;2.60;2.60;;;;;;;;5071296;28;8842;-79
2023/09/29 05:37:46;;;;;;;;;4.00;4.00;;;;;;;;5071257;28;8847;-78
2023/09/29 05:40:15;;;;;;;;;3.60;3.60;;;;;;;;5071912;28;8883;-77
2023/09/29 05:42:43;;;;;;;;;4.20;3.00;;;;;;;;5072728;28;8863;-81
2023/09/29 05:45:12;;;;;;;;;2.00;2.00;;;;;;;;5073883;28;8868;-77
2023/09/29 05:47:39;;;;;;;;;3.00;3.00;;;;;;;;5073203;28;8846;-73
2023/09/29 05:50:10;;;;;;;;;2.40;2.20;;;;;;;;5073774;28;8847;-77
2023/09/29 05:52:37;;;;;;;;;2.00;2.00;;;;;;;;5074235;28;8903;-78
2023/09/29 05:55:06;;;;;;;;;3.60;3.20;;;;;;;;5073182;28;8854;-86
2023/09/29 05:57:34;;;;;;;;;5.20;3.60;;;;;;;;5071025;28;8855;-85
2023/09/29 06:00:04;;;;;;;;;4.60;3.00;;;;;;;;5071002;28;8908;-82
2023/09/29 06:02:31;;;;;;;;;3.40;3.40;;;;;;;;5069940;28;8815;-85
2023/09/29 06:04:59;;;;;;;;;1.80;1.80;;;;;;;;5069672;28;8927;-85
2023/09/29 06:07:26;;;;;;;;;2.40;2.40;;;;;;;;5070187;28;8908;-82
2023/09/29 06:09:55;;;;;;;;;2.60;2.60;;;;;;;;5070201;28;8867;-85
2023/09/29 06:12:25;;;;;;;;;4.40;4.40;;;;;;;;5068103;28;8986;-88
2023/09/29 06:14:53;;;;;;;;;4.20;3.20;;;;;;;;5069325;28;9630;-88
2023/09/29 06:17:20;;;;;;;;;4.80;3.60;;;;;;;;5070945;28;8852;-80
2023/09/29 06:19:49;;;;;;;;;3.00;3.00;;;;;;;;5070090;28;8866;-86
2023/09/29 06:22:16;;;;;;;;;4.20;4.20;;;;;;;;5070319;28;8850;-84
2023/09/29 06:24:44;;;;;;;;;5.00;3.00;;;;;;;;5070409;28;8862;-87
2023/09/29 06:27:11;;;;;;;;;8.60;4.40;;;;;;;;5070344;28;8861;-76
2023/09/29 06:29:40;;;;;;;;;5.40;5.40;;;;;;;;5069798;28;8963;-79
2023/09/29 06:32:11;;;;;;;;;4.40;4.40;;;;;;;;5070310;28;8807;-82
2023/09/29 06:34:39;;;;;;;;;4.00;4.00;;;;;;;;5069731;28;9696;-78
2023/09/29 06:37:07;;;;;;;;;4.20;4.20;;;;;;;;5070104;28;8839;-82
2023/09/29 06:39:35;;;;;;;;;5.20;3.20;;;;;;;;5069712;28;8846;-80
2023/09/29 06:42:02;;;;;;;;;6.60;4.80;;;;;;;;5069919;28;8870;-89
2023/09/29 06:44:30;;;;;;;;;6.20;4.80;;;;;;;;5069532;28;8995;-85
2023/09/29 06:46:58;;;;;;;;;6.40;4.60;;;;;;;;5069924;28;8862;-82
2023/09/29 06:49:28;;;;;;;;;8.60;6.80;;;;;;;;5075068;28;8864;-79
2023/09/29 06:51:55;;;;;;;;;7.40;5.80;;;;;;;;5074834;28;8856;-76
2023/09/29 06:54:23;;;;;;;;;9.80;7.40;;;;;;;;5068767;28;8850;-75
2023/09/29 06:56:50;;;;;;;;;9.00;5.60;;;;;;;;5068284;28;8847;-78
2023/09/29 06:59:18;;;;;;;;;4.00;3.60;;;;;;;;5068800;28;9743;-76
2023/09/29 07:01:48;;;;;;;;;9.20;4.60;;;;;;;;5068005;28;8823;-79
2023/09/29 07:04:17;;;;;;;;;4.80;3.80;;;;;;;;5057037;28;8854;-73
2023/09/29 07:06:46;;;;;;;;;9.80;7.80;;;;;;;;5067706;28;8854;-73
2023/09/29 07:09:15;;;;;;;;;6.80;5.20;;;;;;;;5067873;28;8839;-73
2023/09/29 07:11:44;;;;;;;;;3.40;3.40;;;;;;;;5068038;28;8870;-73
2023/09/29 07:14:11;;;;;;;;;6.80;5.40;;;;;;;;5067703;28;8862;-74
2023/09/29 07:16:41;;;;;;;;;7.00;4.00;;;;;;;;5068832;28;8932;-78
2023/09/29 07:19:08;;;;;;;;;7.20;5.20;;;;;;;;5070833;28;8839;-72
2023/09/29 07:21:35;;;;;;;;;6.20;5.80;;;;;;;;5071447;28;8977;-82
2023/09/29 07:24:05;;;;;;;;;4.40;4.40;;;;;;;;5072871;28;8889;-80
2023/09/29 07:26:32;;;;;;;;;7.40;5.60;;;;;;;;5072855;28;8855;-78
2023/09/29 07:29:01;;;;;;;;;7.20;5.00;;;;;;;;5072223;28;8871;-72
2023/09/29 07:31:35;;;;;;;;;8.80;5.60;;;;;;;;5072180;28;8949;-75
2023/09/29 07:34:02;;;;;;;;;6.40;4.80;;;;;;;;5071769;28;9632;-92
2023/09/29 07:36:33;;;;;;;;;5.40;4.40;;;;;;;;5068531;28;8887;-88
2023/09/29 07:39:00;;;;;;;;;5.40;5.40;;;;;;;;5070037;28;8871;-89
2023/09/29 07:41:28;;;;;;;;;7.60;5.20;;;;;;;;5081527;28;8850;-89
2023/09/29 07:43:56;;;;;;;;;9.00;5.40;;;;;;;;5076532;28;9641;-79
2023/09/29 07:46:26;;;;;;;;;10.40;6.20;;;;;;;;5071949;28;8846;-91
2023/09/29 07:48:53;;;;;;;;;8.40;7.00;;;;;;;;5071252;28;9722;-84
2023/09/29 07:51:24;;;;;;;;;6.60;6.60;;;;;;;;5071124;28;8890;-78
2023/09/29 07:53:52;;;;;;;;;4.00;4.00;;;;;;;;5071465;28;8894;-85
2023/09/29 07:56:19;;;;;;;;;6.20;5.40;;;;;;;;5070249;28;8885;-84
2023/09/29 07:58:47;;;;;;;;;4.60;4.60;;;;;;;;5067612;28;8950;-87
2023/09/29 08:01:15;;;;;;;;;5.20;5.20;;;;;;;;5069428;28;8809;-85
2023/09/29 08:03:43;;;;;;;;;6.80;5.40;;;;;;;;5070190;28;8862;-90
2023/09/29 08:06:10;;;;;;;;;6.40;4.80;;;;;;;;5069697;28;8874;-87
2023/09/29 08:08:38;;;;;;;;;5.20;5.20;;;;;;;;5067888;28;8839;-80
2023/09/29 08:11:05;;;;;;;;;5.40;5.40;;;;;;;;5068853;28;8846;-84
2023/09/29 08:13:32;;;;;;;;;6.20;4.40;;;;;;;;5067611;28;8857;-76
2023/09/29 08:16:01;;;;;;;;;4.20;3.60;;;;;;;;5069442;28;8873;-89
2023/09/29 08:18:30;;;;;;;;;6.00;6.00;;;;;;;;5068605;28;8838;-95
2023/09/29 08:20:57;;;;;;;;;5.20;4.40;;;;;;;;5070030;28;8872;-89
2023/09/29 08:23:30;;;;;;;;;4.40;4.40;;;;;;;;5068861;28;8883;-77
2023/09/29 08:25:57;;;;;;;;;6.00;4.00;;;;;;;;5069103;28;8977;-84
2023/09/29 08:28:24;;;;;;;;;6.20;4.60;;;;;;;;5068185;28;8852;-76
2023/09/29 08:30:51;;;;;;;;;3.80;2.40;;;;;;;;5067814;28;8830;-90
2023/09/29 08:33:20;;;;;;;;;1.60;1.00;;;;;;;;5069620;28;8843;-73
2023/09/29 08:35:47;;;;;;;;;5.40;0.80;;;;;;;;5068993;28;8886;-85
2023/09/29 08:38:17;;;;;;;;;4.60;2.80;;;;;;;;5068673;28;8834;-77
2023/09/29 08:40:47;;;;;;;;;3.20;1.60;;;;;;;;5067029;28;8962;-80
2023/09/29 08:43:16;;;;;;;;;2.20;2.00;;;;;;;;5067971;28;9628;-75
2023/09/29 08:45:44;;;;;;;;;2.80;2.80;;;;;;;;5067110;28;8851;-80
2023/09/29 08:48:13;;;;;;;;;4.00;0.40;;;;;;;;5068315;28;8862;-72
2023/09/29 08:50:43;;;;;;;;;3.20;3.20;;;;;;;;5067527;28;8884;-72
2023/09/29 08:53:10;;;;;;;;;4.20;2.80;;;;;;;;5067481;28;8870;-73
2023/09/29 08:55:39;;;;;;;;;5.20;3.80;;;;;;;;5068579;28;8835;-72
2023/09/29 08:58:07;;;;;;;;;4.00;2.00;;;;;;;;5069062;28;8842;-78
2023/09/29 09:00:35;;;;;;;;;2.00;2.00;;;;;;;;5067613;28;8790;-74
2023/09/29 09:03:02;;;;;;;;;5.00;2.40;;;;;;;;5069532;28;8888;-74
2023/09/29 09:05:30;;;;;;;;;3.20;3.20;;;;;;;;5069608;28;8874;-73
2023/09/29 09:08:01;;;;;;;;;4.80;1.80;;;;;;;;5069481;28;8838;-73
2023/09/29 09:10:32;;;;;;;;;1.80;1.80;;;;;;;;5069360;28;8977;-72
2023/09/29 09:12:59;;;;;;;;;2.00;2.00;;;;;;;;5068600;28;8863;-81
2023/09/29 09:15:27;;;;;;;;;6.60;2.80;;;;;;;;5067054;28;8847;-83
2023/09/29 09:17:55;;;;;;;;;1.00;1.00;;;;;;;;5069740;28;8855;-92
2023/09/29 09:20:23;;;;;;;;;1.20;0.20;;;;;;;;5069931;28;8866;-88
2023/09/29 09:23:01;;;;;;;;;2.20;0.20;;;;;;;;5070723;28;8871;-84
2023/09/29 09:25:35;;;;;;;;;0.00;0.00;;;;;;;;5070365;28;8985;-89
2023/09/29 09:28:05;;;;;;;;;0.20;0.20;;;;;;;;5074104;28;9017;-82
2023/09/29 09:30:35;;;;;;;;;0.00;0.00;;;;;;;;5076241;28;9929;-77
2023/09/29 09:33:04;;;;;;;;;0.00;0.00;;;;;;;;5080452;28;8855;-72
2023/09/29 09:35:32;;;;;;;;;0.00;0.00;;;;;;;;5082969;28;8901;-72
2023/09/29 09:38:02;;;;;;;;;0.00;0.00;;;;;;;;5082589;28;8871;-89
2023/09/29 09:40:31;;;;;;;;;0.00;0.00;;;;;;;;5085324;28;8859;-73
2023/09/29 09:43:02;;;;;;;;;0.00;0.00;;;;;;;;5082802;28;8851;-72
2023/09/29 09:45:37;;;;;;;;;0.00;0.00;;;;;;;;5082106;28;8885;-72
2023/09/29 09:48:07;;;;;;;;;0.00;0.00;;;;;;;;5085684;28;8838;-72
2023/09/29 09:50:36;;;;;;;;;0.00;0.00;;;;;;;;5082685;28;8858;-72
2023/09/29 09:53:08;;;;;;;;;0.00;0.00;;;;;;;;5084174;28;8882;-72
2023/09/29 09:55:39;;;;;;;;;0.00;0.00;;;;;;;;5081689;28;8960;-72
2023/09/29 09:58:12;;;;;;;;;0.00;0.00;;;;;;;;5085357;28;8873;-73
2023/09/29 10:00:45;;;;;;;;;0.00;0.00;;;;;;;;5082453;28;8802;-72
2023/09/29 10:03:14;;;;;;;;;0.00;0.00;;;;;;;;5082157;28;8924;-71
2023/09/29 10:05:46;;;;;;;;;0.00;0.00;;;;;;;;5080934;28;8855;-73
2023/09/29 10:08:24;;;;;;;;;0.00;0.00;;;;;;;;5079454;28;8871;-82
2023/09/29 10:10:52;;;;;;;;;0.20;0.00;;;;;;;;5070722;28;8846;-72
2023/09/29 10:13:19;;;;;;;;;0.00;0.00;;;;;;;;5080071;28;8865;-75
2023/09/29 10:15:56;;;;;;;;;1.20;0.60;;;;;;;;5079676;28;8862;-72
2023/09/29 10:18:24;;;;;;;;;0.00;0.00;;;;;;;;5080530;28;8897;-72
2023/09/29 10:20:55;;;;;;;;;0.00;0.00;;;;;;;;5075976;28;8969;-76
2023/09/29 10:23:25;;;;;;;;;0.00;0.00;;;;;;;;5073541;28;9621;-77
2023/09/29 10:26:00;;;;;;;;;0.00;0.00;;;;;;;;5071283;28;8850;-75
2023/09/29 10:28:33;;;;;;;;;0.00;0.00;;;;;;;;5067481;28;9142;-78
2023/09/29 10:31:08;;;;;;;;;0.00;0.00;;;;;;;;5068845;28;8791;-75
2023/09/29 10:33:47;;;;;;;;;0.00;0.00;;;;;;;;5059411;28;8866;-74
2023/09/29 10:36:14;;;;;;;;;0.00;0.00;;;;;;;;5072444;28;8864;-70
2023/09/29 10:38:43;;;;;;;;;0.60;0.00;;;;;;;;5070937;28;8863;-72
2023/09/29 10:41:11;;;;;;;;;0.00;0.00;;;;;;;;5070473;28;8961;-74
2023/09/29 10:43:38;;;;;;;;;0.00;0.00;;;;;;;;5072485;28;8889;-73
2023/09/29 10:46:09;;;;;;;;;0.80;0.80;;;;;;;;5072672;28;8861;-71
2023/09/29 10:48:44;;;;;;;;;0.00;0.00;;;;;;;;5072054;28;8881;-70
2023/09/29 10:51:12;;;;;;;;;0.00;0.00;;;;;;;;5072675;28;8847;-74
2023/09/29 10:53:43;;;;;;;;;0.00;0.00;;;;;;;;5070193;28;8863;-79
2023/09/29 10:56:11;;;;;;;;;0.00;0.00;;;;;;;;5069752;28;8858;-70
2023/09/29 10:58:38;;;;;;;;;0.00;0.00;;;;;;;;5067323;28;8847;-72
2023/09/29 11:01:05;;;;;;;;;0.00;0.00;;;;;;;;5069301;28;8801;-71
2023/09/29 11:03:35;;;;;;;;;0.00;0.00;;;;;;;;5068823;28;9456;-82
2023/09/29 11:06:08;;;;;;;;;0.00;0.00;;;;;;;;5069793;28;8851;-84
2023/09/29 11:08:38;;;;;;;;;0.00;0.00;;;;;;;;5070109;28;8866;-80
2023/09/29 11:11:09;;;;;;;;;0.00;0.00;;;;;;;;5069730;28;8834;-78
2023/09/29 11:13:37;;;;;;;;;0.00;0.00;;;;;;;;5067680;28;8843;-75
2023/09/29 11:16:16;;;;;;;;;0.00;0.00;;;;;;;;5069133;28;9017;-75
2023/09/29 11:18:44;;;;;;;;;0.00;0.00;;;;;;;;5074608;28;8832;-73
2023/09/29 11:21:12;;;;;;;;;0.20;0.00;;;;;;;;5076097;28;8843;-77
2023/09/29 11:23:44;;;;;;;;;0.00;0.00;;;;;;;;5069628;28;8860;-76
2023/09/29 11:26:15;;;;;;;;;0.00;0.00;;;;;;;;5068474;28;8854;-80
2023/09/29 11:28:43;;;;;;;;;0.00;0.00;;;;;;;;5068713;28;8870;-78
2023/09/29 11:31:12;;;;;;;;;0.20;0.00;;;;;;;;5058150;28;8792;-73
2023/09/29 11:33:39;;;;;;;;;0.00;0.00;;;;;;;;5068731;28;8874;-78
2023/09/29 11:36:14;;;;;;;;;0.00;0.00;;;;;;;;5068335;28;8853;-78
2023/09/29 11:38:41;;;;;;;;;0.00;0.00;;;;;;;;5068573;28;8850;-76
2023/09/29 11:41:09;;;;;;;;;0.00;0.00;;;;;;;;5068025;28;8841;-74
2023/09/29 11:43:43;;;;;;;;;0.00;0.00;;;;;;;;5068135;28;8870;-79
2023/09/29 11:46:10;;;;;;;;;0.00;0.00;;;;;;;;5068507;28;8839;-80
2023/09/29 11:48:38;;;;;;;;;0.00;0.00;;;;;;;;5068380;28;8855;-74
2023/09/29 11:51:05;;;;;;;;;0.20;0.00;;;;;;;;5080529;28;8886;-76
2023/09/29 11:53:32;;;;;;;;;0.00;0.00;;;;;;;;5067975;28;8847;-76
2023/09/29 11:55:59;;;;;;;;;0.00;0.00;;;;;;;;5068047;28;8847;-80
2023/09/29 11:58:27;;;;;;;;;0.00;0.00;;;;;;;;5067477;28;8954;-75
2023/09/29 12:00:55;;;;;;;;;0.60;0.00;;;;;;;;5054769;28;8817;-74
2023/09/29 12:03:23;;;;;;;;;0.00;0.00;;;;;;;;5067168;28;8866;-76
2023/09/29 12:05:51;;;;;;;;;0.00;0.00;;;;;;;;5067746;28;8868;-74
2023/09/29 12:08:19;;;;;;;;;0.00;0.00;;;;;;;;5067464;28;8839;-74
2023/09/29 12:10:47;;;;;;;;;0.00;0.00;;;;;;;;5067849;28;8970;-75
2023/09/29 12:13:15;;;;;;;;;0.00;0.00;;;;;;;;5067522;28;8893;-73
2023/09/29 12:15:43;;;;;;;;;0.00;0.00;;;;;;;;5068720;28;8858;-74
2023/09/29 12:18:11;;;;;;;;;0.00;0.00;;;;;;;;5068181;28;9634;-74
2023/09/29 12:20:39;;;;;;;;;0.00;0.00;;;;;;;;5069621;28;8850;-73
2023/09/29 12:23:08;;;;;;;;;0.00;0.00;;;;;;;;5069600;28;8905;-73
2023/09/29 12:25:36;;;;;;;;;0.60;0.00;;;;;;;;5069948;28;8953;-73
2023/09/29 12:28:04;;;;;;;;;0.00;0.00;;;;;;;;5069989;28;8875;-74
2023/09/29 12:30:33;;;;;;;;;0.00;0.00;;;;;;;;5069704;28;8912;-74
2023/09/29 12:33:00;;;;;;;;;0.00;0.00;;;;;;;;5067744;28;9627;-74
2023/09/29 12:35:29;;;;;;;;;0.00;0.00;;;;;;;;5067512;28;8846;-76
2023/09/29 12:37:56;;;;;;;;;0.00;0.00;;;;;;;;5067105;28;8884;-74
2023/09/29 12:40:23;;;;;;;;;0.00;0.00;;;;;;;;5067195;28;8865;-75
2023/09/29 12:42:50;;;;;;;;;0.00;0.00;;;;;;;;5066574;28;8989;-75
2023/09/29 12:45:21;;;;;;;;;0.00;0.00;;;;;;;;5067180;28;8902;-77
2023/09/29 12:47:49;;;;;;;;;0.00;0.00;;;;;;;;5066741;28;8919;-75
2023/09/29 12:50:17;;;;;;;;;2.20;0.00;;;;;;;;5067233;28;9021;-80
2023/09/29 12:52:46;;;;;;;;;0.00;0.00;;;;;;;;5067348;28;8844;-81
2023/09/29 12:55:14;;;;;;;;;0.00;0.00;;;;;;;;5067635;28;8829;-79
2023/09/29 12:57:43;;;;;;;;;0.00;0.00;;;;;;;;5067621;28;8929;-74
2023/09/29 13:00:18;;;;;;;;;0.00;0.00;;;;;;;;5067751;28;8861;-75
2023/09/29 13:02:47;;;;;;;;;0.00;0.00;;;;;;;;5067927;28;8855;-75
2023/09/29 13:05:14;;;;;;;;;0.00;0.00;;;;;;;;5067263;28;9641;-74
2023/09/29 13:07:41;;;;;;;;;0.00;0.00;;;;;;;;5067709;28;8859;-75
2023/09/29 13:10:11;;;;;;;;;0.00;0.00;;;;;;;;5066809;28;8924;-75
2023/09/29 13:12:39;;;;;;;;;0.00;0.00;;;;;;;;5066742;28;8866;-74
2023/09/29 13:15:08;;;;;;;;;0.00;0.00;;;;;;;;5066518;28;8867;-78
2023/09/29 13:17:35;;;;;;;;;0.00;0.00;;;;;;;;5066931;28;8870;-73
2023/09/29 13:20:03;;;;;;;;;0.00;0.00;;;;;;;;5067486;28;9602;-76
2023/09/29 13:22:30;;;;;;;;;0.00;0.00;;;;;;;;5071585;28;8933;-74
2023/09/29 13:24:58;;;;;;;;;0.00;0.00;;;;;;;;5070908;28;8963;-76
2023/09/29 13:27:27;;;;;;;;;0.00;0.00;;;;;;;;5070847;28;8856;-77
2023/09/29 13:29:54;;;;;;;;;0.00;0.00;;;;;;;;5070214;28;8858;-77
2023/09/29 13:32:22;;;;;;;;;0.00;0.00;;;;;;;;5069939;28;8815;-76
2023/09/29 13:34:50;;;;;;;;;0.00;0.00;;;;;;;;5070278;28;8850;-77
2023/09/29 13:37:18;;;;;;;;;0.00;0.00;;;;;;;;5070448;28;8843;-76
2023/09/29 13:39:45;;;;;;;;;0.00;0.00;;;;;;;;5070543;28;8847;-79
2023/09/29 13:42:12;;;;;;;;;1.20;0.20;;;;;;;;5071270;28;8895;-73
2023/09/29 13:44:41;;;;;;;;;0.20;0.20;;;;;;;;5069127;28;8854;-79
2023/09/29 13:47:08;;;;;;;;;0.00;0.00;;;;;;;;5070591;28;8842;-81
2023/09/29 13:49:35;;;;;;;;;1.00;0.00;;;;;;;;5069770;28;8880;-81
2023/09/29 13:52:04;;;;;;;;;0.20;0.20;;;;;;;;5069988;28;8860;-74
2023/09/29 13:54:32;;;;;;;;;0.80;0.80;;;;;;;;5070420;28;8862;-74
2023/09/29 13:56:59;;;;;;;;;0.00;0.00;;;;;;;;5070853;28;8859;-74
2023/09/29 13:59:26;;;;;;;;;1.00;1.00;;;;;;;;5060791;28;8950;-76
2023/09/29 14:01:55;;;;;;;;;2.60;1.60;;;;;;;;5071810;28;8925;-77
2023/09/29 14:04:22;;;;;;;;;0.00;0.00;;;;;;;;5073689;28;8839;-76
2023/09/29 14:06:52;;;;;;;;;2.20;2.20;;;;;;;;5072739;28;8858;-73
2023/09/29 14:09:19;;;;;;;;;4.00;1.20;;;;;;;;5074794;28;8929;-75
2023/09/29 14:11:49;;;;;;;;;1.20;1.20;;;;;;;;5071450;28;9647;-82
2023/09/29 14:14:20;;;;;;;;;1.00;1.00;;;;;;;;5069937;28;8815;-75
2023/09/29 14:16:48;;;;;;;;;2.00;1.20;;;;;;;;5069449;28;8843;-83
2023/09/29 14:19:16;;;;;;;;;0.00;0.00;;;;;;;;5070272;28;8843;-84
2023/09/29 14:21:43;;;;;;;;;2.60;2.60;;;;;;;;5069836;28;8862;-82
2023/09/29 14:24:11;;;;;;;;;0.80;0.80;;;;;;;;5070094;28;8893;-79
2023/09/29 14:26:39;;;;;;;;;1.00;1.00;;;;;;;;5069397;28;8866;-79
2023/09/29 14:29:08;;;;;;;;;2.00;2.00;;;;;;;;5071258;28;9678;-79
2023/09/29 14:31:35;;;;;;;;;2.40;1.60;;;;;;;;5068765;28;8831;-82
2023/09/29 14:34:05;;;;;;;;;2.60;2.60;;;;;;;;5069534;28;8847;-81
2023/09/29 14:36:33;;;;;;;;;1.00;1.00;;;;;;;;5069258;28;8881;-77
2023/09/29 14:39:00;;;;;;;;;2.00;1.40;;;;;;;;5070284;28;8890;-79
2023/09/29 14:41:27;;;;;;;;;2.40;2.40;;;;;;;;5071001;28;8839;-82
2023/09/29 14:43:55;;;;;;;;;3.00;3.00;;;;;;;;5069786;28;8847;-81
2023/09/29 14:46:22;;;;;;;;;1.60;1.60;;;;;;;;5069185;28;8847;-76
2023/09/29 14:48:50;;;;;;;;;2.00;2.00;;;;;;;;5068983;28;8875;-81
2023/09/29 14:51:19;;;;;;;;;1.40;1.40;;;;;;;;5069734;28;8862;-74
2023/09/29 14:53:49;;;;;;;;;3.00;1.00;;;;;;;;5068859;28;8882;-78
2023/09/29 14:56:16;;;;;;;;;2.40;1.60;;;;;;;;5069702;28;8855;-81
2023/09/29 14:58:43;;;;;;;;;3.60;2.00;;;;;;;;5068989;28;8877;-77
2023/09/29 15:01:11;;;;;;;;;3.00;2.20;;;;;;;;5069231;28;8795;-82
2023/09/29 15:03:38;;;;;;;;;2.00;2.00;;;;;;;;5069099;28;8921;-77